INFORMAÇÕES DO AERODROMO
Icao Aerodromo OTBD Nome do Aerodromo Doha International Airport Cidade Doha
Código GPS OTBD Elevação Média 35 ft Tipo de Aerodromo Aeroporto Grande Porte

INFORMAÇÃO DE PISTA
Pista 15 Comprimento da Pista 15000 ft Largura da Pista 151 ft
Elevação da Pista 35 ft Distância de Area de Escape da Pista 2460 ft Orientação da Pista 158
Pista 33 Comprimento da Pista 15000 ft Largura da Pista 151 ft
Elevação da Pista 25 ft Distância de Area de Escape da Pista 0 ft Orientação da Pista 338

FREQUÊNCIAS DO AERODROMO
Tipo APP Nome APP Frequência 121.1 MHZ
Tipo ATIS Nome ATIS Frequência 126.45 MHZ
Tipo GND Nome GND Frequência 118.275 MHZ
Tipo OPS Nome KINGFISH N Frequência 139.5 MHZ
Tipo TWR Nome TWR Frequência 118.9 MHZ

INFORMAÇÕES DE NAVEGAÇÃO PRÓXIMO AO AERODROMO
Tipo VOR-DME Nome Doha Frequência 112400 KHZ
Tipo NDB Nome Wk Frequência 323 KHZ

Informações de Meteorologia(METAR atual)
METAR DE OTBD
ADDS - METARS form results

(1354 UTC 12 December 2018)
Data provider http://aviationweather.gov/metar/data/
 
METAR text: OTBD 121330Z 31009KT 270V340 CAVOK 25/14 Q1019 NOSIG
Conditions at: OTBD (DOHA INTL AIRPOR, QA) observed 1330 UTC 12 December 2018
Temperature: 25.0°C (77°F)
Dewpoint: 14.0°C (57°F) [RH = 50%]
Pressure (altimeter): 30.09 inches Hg (1019.0 mb)
Winds: from the NW (310 degrees) at 10 MPH (9 knots; 4.6 m/s)
Visibility: 6 or more miles (10+ km)
Ceiling: ceiling and visibility are OK
Clouds: unknown
Weather: no significant weather observed at this time

METAR text: OTBD 121300Z 34010KT 300V360 CAVOK 25/13 Q1018 NOSIG
Conditions at: OTBD (DOHA INTL AIRPOR, QA) observed 1300 UTC 12 December 2018
Temperature: 25.0°C (77°F)
Dewpoint: 13.0°C (55°F) [RH = 47%]
Pressure (altimeter): 30.06 inches Hg (1018.0 mb)
Winds: from the NNW (340 degrees) at 12 MPH (10 knots; 5.1 m/s)
Visibility: 6 or more miles (10+ km)
Ceiling: ceiling and visibility are OK
Clouds: unknown
Weather: no significant weather observed at this time

Forecast for: OTBD (DOHA INTL AIRPOR, QA)
Text: TAF OTBD 121022Z 1212/1318 34010KT 9000 NSC
Forecast period: 1200 UTC 12 December 2018 to 1800 UTC 13 December 2018
Forecast type: FROM: standard forecast or significant change
Winds: from the NNW (340 degrees) at 12 MPH (10 knots; 5.1 m/s)
Visibility: 6 miles (9 km)
Ceiling: unknown
Clouds: missing
Weather: no significant weather forecast for this period
Text: TEMPO 1308/1315 03008KT
Forecast period: 0800 to 1500 UTC 13 December 2018
Forecast type: TEMPORARY: The following changes expected for less than half the time period
Winds: from the NNE (30 degrees) at 9 MPH (8 knots; 4.1 m/s)
Visibility: missing
Ceiling: unknown
Clouds: missing
Weather: no significant weather forecast for this period

MAPA DO AERODROMO


Desenvolvido por Virtual Airlines Manager




Modificado por Servidor Brasil Amigos